Yosemite Valley, CA

10:43 PM PDT on October 01, 2014 (GMT -0700)
RAWS WAWONA CA US | Change Station
CLOSE
Current Station
Personal Weather Station
Location: Tuolumne Meadows, CA
Elevation: 4309 ft
Nearby Weather Stations

Elev 4309 ft 37.53 °N, 119.64 °W | Updated 52 minutes ago

Clear
Clear
53 °F
Feels Like 53 °F
N
0
Wind Variable Wind from North
Gusts 2.0 mph

Today
High -- | Low -- °F
--% Chance of Precip.
Yesterday
High -- | Low -- °F
Precip. -- in
6:53 AM 6:41 PM
First Quarter, 55% visible
Pressure 29.98 in
Visibility 10.0 miles
Clouds Clear
Dew Point 47 °F
Humidity 81%
Rainfall 0.00 in
Snow Depth 1 in , 1 in , 0 in
UV 0 out of 12
Pollen 5.40 out of 12
Air Quality Not available.
Flu Activity Not available.
METAR KO22 020535Z AUTO 32003KT 10SM CLR 13/03 A2998 RMK AO1

More Conditions Fewer Conditions

Pressure 29.98 in
Visibility 10.0 miles
Clouds Clear
Dew Point 47 °F
Humidity 81%
Rainfall 0.00 in
Snow Depth 1 in , 1 in , 0 in
UV 0 out of 12
Pollen 5.40 out of 12
Air Quality Not available.
Flu Activity Not available.
METAR KO22 020535Z AUTO 32003KT 10SM CLR 13/03 A2998 RMK AO1

More Conditions Fewer Conditions

10-Day Weather Forecast

Almanac

Astronomy

Oct. 01, 2014 Rise Set
Actual Time 6:53 AM PDT 6:41 PM PDT
Civil Twilight 6:27 AM PDT 7:07 PM PDT
Nautical Twilight 5:57 AM PDT 7:37 PM PDT
Astronomical Twilight 5:26 AM PDT 8:08 PM PDT
Moon 1:54 PM PDT (10/1) No Moon Set
Length of Visible Light 12h 39m
Length of Day
11h 47m
Tomorrow will be 2m 24s shorter.
First Quarter, 55% of the Moon is Illuminated
Oct 2
First Quarter
Oct 8
Full
Oct 15
Last Quarter
Oct 23
New
Oct 30
First Quarter

Yesterday's Extremes

State Highs State Lows

Community

WunderPhotos

Upload Photos

1,758,197 photos uploaded!

Nearby

Snow Depth

Station Depth Elevation
Leavitt Meadows 1 in 7200 ft
Squaw Valley 1 in 8200 ft
Tahoe City Cross 0 in 6750 ft
Summit Meadow 1 in 9122 ft
Sonora Pass 0 in 8800 ft

Earthquake Activity

City Distance Mag. Time & Date
South Dos Palos, California 103 miles 3.0 11:17 AM PDT
2014-10-01
Shandon, California 141 miles 2.9 5:34 PM PDT
2014-09-30
South Dos Palos, California 103 miles 2.7 3:08 PM PDT
2014-09-30
South Dos Palos, California 103 miles 2.5 9:18 PM PDT
2014-09-29
Minimum magnitude displayed is 2.5.

Coastal Water Temperatures

Place Temperature
No Stations Reporting

Nearby Weather Stations